createdAt,value
2019-03-11T00:00:20.900Z,100064.27
2019-03-11T00:02:50.272Z,100063.19
2019-03-11T00:05:19.684Z,100058.69
2019-03-11T00:07:49.060Z,100059.06
2019-03-11T00:10:18.388Z,100053.15
2019-03-11T00:12:47.752Z,100054.56
2019-03-11T00:15:17.059Z,100055.05
2019-03-11T00:17:46.362Z,100051.59
2019-03-11T00:20:16.214Z,100052.16
2019-03-11T00:22:45.519Z,100053.87
2019-03-11T00:25:14.888Z,100047.95
2019-03-11T00:27:44.378Z,100044.20
2019-03-11T00:30:13.817Z,100048.05
2019-03-11T00:32:43.828Z,100043.72
2019-03-11T00:35:13.247Z,100052.63
2019-03-11T00:37:42.655Z,100042.85
2019-03-11T00:40:12.157Z,100051.05
2019-03-11T00:42:41.522Z,100045.85
2019-03-11T00:45:11.635Z,100053.20
2019-03-11T00:47:41.953Z,100035.84
2019-03-11T00:50:11.332Z,100037.36
2019-03-11T00:52:40.876Z,100028.11
2019-03-11T00:55:10.207Z,100027.50
2019-03-11T00:57:39.596Z,100018.82
2019-03-11T01:00:23.772Z,100020.91
2019-03-11T01:02:53.108Z,100017.27
2019-03-11T01:05:22.466Z,100015.94
2019-03-11T01:07:51.777Z,100001.48
2019-03-11T01:10:21.204Z,100014.03
2019-03-11T01:12:50.539Z,100005.34
2019-03-11T01:15:19.921Z,100006.78
2019-03-11T01:17:49.260Z,100004.03
2019-03-11T01:20:18.687Z,100004.05
2019-03-11T01:22:48.899Z,99995.23
2019-03-11T01:25:24.920Z,99994.77
2019-03-11T01:27:54.247Z,99991.61
2019-03-11T01:30:23.667Z,99988.22
2019-03-11T01:32:52.983Z,99973.26
2019-03-11T01:35:22.311Z,99955.27
2019-03-11T01:37:51.620Z,99959.24
2019-03-11T01:40:21.529Z,99950.94
2019-03-11T01:42:51.952Z,99947.41
2019-03-11T01:45:20.141Z,99948.77
2019-03-11T01:47:49.509Z,99937.28
2019-03-11T01:50:18.943Z,99938.09
2019-03-11T01:52:48.341Z,99926.39
2019-03-11T01:55:17.718Z,99926.41
2019-03-11T01:57:47.043Z,99921.80
2019-03-11T02:00:16.468Z,99923.27
2019-03-11T02:02:45.878Z,99923.71
2019-03-11T02:05:15.132Z,99918.33
2019-03-11T02:07:44.452Z,99915.77
2019-03-11T02:10:14.479Z,99911.53
2019-03-11T02:12:44.513Z,99897.76
2019-03-11T02:15:14.870Z,99903.82
2019-03-11T02:17:44.166Z,99902.48
2019-03-11T02:20:14.163Z,99903.45
2019-03-11T02:22:43.541Z,99898.62
2019-03-11T02:25:12.964Z,99903.91
2019-03-11T02:27:43.333Z,99899.09
2019-03-11T02:30:13.108Z,99899.83
2019-03-11T02:32:42.528Z,99897.05
2019-03-11T02:35:11.854Z,99891.70
2019-03-11T02:37:41.694Z,99893.87
2019-03-11T02:40:11.471Z,99883.86
2019-03-11T02:42:40.740Z,99880.00
2019-03-11T02:45:10.215Z,99875.05
2019-03-11T02:47:39.561Z,99865.13
2019-03-11T02:50:09.072Z,99864.75
2019-03-11T02:52:38.418Z,99856.08
2019-03-11T02:55:07.974Z,99844.49
2019-03-11T02:57:37.393Z,99847.48
2019-03-11T03:00:06.952Z,99836.06
2019-03-11T03:02:40.377Z,99836.77
2019-03-11T03:05:16.865Z,99833.75
2019-03-11T03:07:46.313Z,99817.22
2019-03-11T03:10:15.677Z,99819.17
2019-03-11T03:12:45.045Z,99816.40
2019-03-11T03:15:14.453Z,99821.59
2019-03-11T03:17:43.762Z,99823.75
2019-03-11T03:20:13.218Z,99830.55
2019-03-11T03:22:42.623Z,99834.41
2019-03-11T03:25:12.003Z,99831.26
2019-03-11T03:27:41.345Z,99817.85
2019-03-11T03:30:14.348Z,99813.28
2019-03-11T03:32:43.633Z,99808.77
2019-03-11T03:35:13.033Z,99806.27
2019-03-11T03:37:43.121Z,99796.23
2019-03-11T03:40:12.589Z,99797.77
2019-03-11T03:42:42.045Z,99792.81
2019-03-11T03:45:36.155Z,99789.59
2019-03-11T03:48:05.454Z,99788.63
2019-03-11T03:50:38.959Z,99778.42
2019-03-11T03:53:08.585Z,99785.77
2019-03-11T03:55:37.957Z,99779.99
2019-03-11T03:58:07.522Z,99788.30
2019-03-11T04:00:36.845Z,99776.26
2019-03-11T04:03:06.209Z,99781.53
2019-03-11T04:05:35.670Z,99797.47
2019-03-11T04:08:05.061Z,99800.59
2019-03-11T04:10:34.875Z,99796.64
2019-03-11T04:13:04.187Z,99800.38
2019-03-11T04:15:33.485Z,99791.66
2019-03-11T04:18:02.840Z,99790.87
2019-03-11T04:20:32.184Z,99787.96
2019-03-11T04:23:01.604Z,99788.08
2019-03-11T04:25:31.803Z,99779.87
2019-03-11T04:28:01.159Z,99804.23
2019-03-11T04:30:30.444Z,99800.38
2019-03-11T04:32:59.887Z,99804.14
2019-03-11T04:35:29.880Z,99815.81
2019-03-11T04:37:59.694Z,99816.93
2019-03-11T04:40:29.561Z,99843.95
2019-03-11T04:42:58.981Z,99861.39
2019-03-11T04:45:28.248Z,99874.58
2019-03-11T04:47:57.570Z,99841.87
2019-03-11T04:50:26.932Z,99842.73
2019-03-11T04:52:56.407Z,99832.48
2019-03-11T04:55:26.391Z,99824.28
2019-03-11T04:57:55.653Z,99816.48
2019-03-11T05:00:28.353Z,99839.98
2019-03-11T05:02:57.749Z,99847.71
2019-03-11T05:05:27.056Z,99861.05
2019-03-11T05:07:56.525Z,99860.32
2019-03-11T05:10:25.822Z,99867.61
2019-03-11T05:12:55.081Z,99871.58
2019-03-11T05:15:24.476Z,99889.79
2019-03-11T05:17:54.704Z,99896.84
2019-03-11T05:20:24.079Z,99899.52
2019-03-11T05:22:54.872Z,99892.13
2019-03-11T05:25:22.740Z,99913.97
2019-03-11T05:27:52.049Z,99914.88
2019-03-11T05:30:21.419Z,99904.04
2019-03-11T05:32:50.824Z,99901.11
2019-03-11T05:35:20.168Z,99896.41
2019-03-11T05:37:49.492Z,99900.02
2019-03-11T05:40:18.882Z,99905.37
2019-03-11T05:42:55.016Z,99906.97
2019-03-11T05:45:24.419Z,99903.27
2019-03-11T05:47:53.833Z,99919.89
2019-03-11T05:50:23.248Z,99921.09
2019-03-11T05:52:52.652Z,99917.84
2019-03-11T05:55:21.987Z,99922.27
2019-03-11T05:57:51.289Z,99922.48
2019-03-11T06:00:23.125Z,99923.13
2019-03-11T06:02:52.434Z,99928.89
2019-03-11T06:05:21.887Z,99927.23
2019-03-11T06:07:51.184Z,99923.25
2019-03-11T06:10:20.584Z,99910.51
2019-03-11T06:12:50.418Z,99908.28
2019-03-11T06:15:19.799Z,99916.57
2019-03-11T06:17:49.256Z,99905.25
2019-03-11T06:20:38.450Z,99906.51
2019-03-11T06:23:10.193Z,99907.52
2019-03-11T06:25:39.470Z,99919.38
2019-03-11T06:28:08.819Z,99917.27
2019-03-11T06:30:38.257Z,99912.38
2019-03-11T06:33:07.567Z,99921.28
2019-03-11T06:35:36.836Z,99939.16
2019-03-11T06:38:06.095Z,99942.67
2019-03-11T06:40:35.843Z,99948.00
2019-03-11T06:43:05.231Z,99949.09
2019-03-11T06:45:34.506Z,99952.23
2019-03-11T06:48:03.847Z,99955.34
2019-03-11T06:50:33.116Z,99957.80
2019-03-11T06:53:02.518Z,99949.23
2019-03-11T06:55:31.811Z,99954.67
2019-03-11T06:58:01.133Z,99943.66
2019-03-11T07:00:30.427Z,99956.72
2019-03-11T07:02:59.742Z,99965.98
2019-03-11T07:05:29.044Z,99966.61
2019-03-11T07:07:58.418Z,99969.16
2019-03-11T07:10:27.771Z,99973.36
2019-03-11T07:12:57.131Z,99972.16
2019-03-11T07:15:26.497Z,99970.49
2019-03-11T07:17:55.998Z,99974.45
2019-03-11T07:20:25.463Z,99976.64
2019-03-11T07:22:54.784Z,99980.00
2019-03-11T07:25:24.117Z,99982.53
2019-03-11T07:27:54.231Z,99983.03
2019-03-11T07:30:23.561Z,99978.08
2019-03-11T07:32:52.906Z,99977.11
2019-03-11T07:35:22.436Z,99980.36
2019-03-11T07:37:51.757Z,99979.05
2019-03-11T07:40:29.817Z,99986.41
2019-03-11T07:42:50.330Z,99988.84
2019-03-11T07:45:19.770Z,99993.43
2019-03-11T07:47:50.223Z,100000.08
2019-03-11T07:50:19.736Z,99991.12
2019-03-11T07:52:49.133Z,99994.38
2019-03-11T07:55:18.474Z,99994.51
2019-03-11T07:57:47.843Z,99994.01
2019-03-11T08:00:17.280Z,99994.27
2019-03-11T08:02:46.685Z,100005.73
2019-03-11T08:05:16.007Z,99991.98
2019-03-11T08:07:45.388Z,99999.56
2019-03-11T08:10:14.758Z,99998.47
2019-03-11T08:12:44.099Z,99991.12
2019-03-11T08:15:14.054Z,99998.22
2019-03-11T08:17:43.428Z,100008.26
2019-03-11T08:20:12.704Z,100011.87
2019-03-11T08:22:42.068Z,100030.94
2019-03-11T08:25:11.425Z,100042.81
2019-03-11T08:27:40.776Z,100028.16
2019-03-11T08:30:11.284Z,100036.23
2019-03-11T08:32:40.630Z,100027.13
2019-03-11T08:35:09.983Z,100026.61
2019-03-11T08:37:39.343Z,100033.20
2019-03-11T08:40:10.231Z,100027.47
2019-03-11T08:42:40.583Z,100031.84
2019-03-11T08:45:11.805Z,100021.23
2019-03-11T08:47:41.140Z,100021.05
2019-03-11T08:50:10.873Z,100021.64
2019-03-11T08:52:40.201Z,100026.92
2019-03-11T08:55:09.634Z,100024.45
2019-03-11T08:57:40.364Z,100036.72
2019-03-11T09:00:09.304Z,100026.05
2019-03-11T09:02:38.608Z,100033.44
2019-03-11T09:05:10.177Z,100036.06
2019-03-11T09:07:39.513Z,100044.27
2019-03-11T09:10:11.749Z,100042.68
2019-03-11T09:12:41.285Z,100029.92
2019-03-11T09:15:12.625Z,100046.20
2019-03-11T09:17:42.075Z,100041.56
2019-03-11T09:20:11.917Z,100056.25
2019-03-11T09:22:41.403Z,100068.18
2019-03-11T09:25:13.465Z,100052.73
2019-03-11T09:27:42.761Z,100061.83
2019-03-11T09:30:16.730Z,100055.88
2019-03-11T09:32:46.925Z,100063.83
2019-03-11T09:35:16.335Z,100055.09
2019-03-11T09:37:45.665Z,100080.58
2019-03-11T09:40:16.347Z,100061.20
2019-03-11T09:42:45.676Z,100068.65
2019-03-11T09:45:15.410Z,100066.39
2019-03-11T09:47:44.886Z,100106.96
2019-03-11T09:50:14.340Z,100090.42
2019-03-11T09:52:43.813Z,100090.16
2019-03-11T09:55:14.464Z,100091.87
2019-03-11T09:57:43.829Z,100092.72
2019-03-11T10:00:18.568Z,100092.70
2019-03-11T10:02:52.720Z,100088.94
2019-03-11T10:05:17.995Z,100091.97
2019-03-11T10:07:47.390Z,100098.48
2019-03-11T10:10:17.348Z,100093.97
2019-03-11T10:12:46.627Z,100099.55
2019-03-11T10:15:17.679Z,100094.84
2019-03-11T10:17:47.024Z,100112.77
2019-03-11T10:20:16.444Z,100102.98
2019-03-11T10:22:46.520Z,100110.97
2019-03-11T10:25:16.892Z,100111.44
2019-03-11T10:27:46.296Z,100110.53
2019-03-11T10:30:16.840Z,100096.48
2019-03-11T10:32:46.840Z,100106.73
2019-03-11T10:35:30.720Z,100111.80
2019-03-11T10:37:45.651Z,100111.56
2019-03-11T10:40:17.734Z,100112.95
2019-03-11T10:42:47.084Z,100125.00
2019-03-11T10:45:17.323Z,100164.31
2019-03-11T10:47:47.733Z,100126.99
2019-03-11T10:50:17.116Z,100125.78
2019-03-11T10:52:46.697Z,100145.63
2019-03-11T10:55:16.099Z,100121.09
2019-03-11T10:57:45.473Z,100121.09
2019-03-11T11:00:19.034Z,100144.05
2019-03-11T11:02:48.403Z,100155.74
2019-03-11T11:05:17.797Z,100173.58
2019-03-11T11:07:47.184Z,100174.41
2019-03-11T11:10:16.842Z,100161.81
2019-03-11T11:12:46.248Z,100162.94
2019-03-11T11:15:18.187Z,100181.45
2019-03-11T11:17:47.576Z,100182.02
2019-03-11T11:20:17.298Z,100181.12
2019-03-11T11:22:46.705Z,100185.56
2019-03-11T11:25:17.989Z,100167.98
2019-03-11T11:27:47.384Z,100185.20
2019-03-11T11:30:19.408Z,100184.16
2019-03-11T11:32:48.731Z,100178.58
2019-03-11T11:35:19.375Z,100180.08
2019-03-11T11:37:48.712Z,100200.39
2019-03-11T11:40:20.966Z,100204.97
2019-03-11T11:42:50.436Z,100203.59
2019-03-11T11:45:20.441Z,100202.83
2019-03-11T11:47:49.906Z,100214.38
2019-03-11T11:50:20.292Z,100206.02
2019-03-11T11:52:49.755Z,100214.52
2019-03-11T11:55:20.291Z,100240.66
2019-03-11T11:57:49.917Z,100208.05
2019-03-11T12:00:25.108Z,100212.16
2019-03-11T12:02:54.575Z,100198.50
2019-03-11T12:05:23.932Z,100216.62
2019-03-11T12:07:53.387Z,100209.37
2019-03-11T12:10:23.072Z,100215.03
2019-03-11T12:12:52.481Z,100217.55
2019-03-11T12:15:21.829Z,100215.59
2019-03-11T12:17:51.200Z,100237.19
2019-03-11T12:20:22.340Z,100221.55
2019-03-11T12:22:51.758Z,100224.49
2019-03-11T12:25:21.084Z,100218.81
2019-03-11T12:27:54.012Z,100232.39
2019-03-11T12:30:22.436Z,100226.32
2019-03-11T12:32:51.885Z,100231.93
2019-03-11T12:35:21.203Z,100235.98
2019-03-11T12:37:50.619Z,100245.72
2019-03-11T12:40:19.935Z,100245.52
2019-03-11T12:42:49.254Z,100240.52
2019-03-11T12:45:18.667Z,100241.47
2019-03-11T12:47:48.020Z,100233.68
2019-03-11T12:50:18.913Z,100248.41
2019-03-11T12:52:48.324Z,100240.86
2019-03-11T12:55:17.687Z,100247.08
2019-03-11T12:57:47.028Z,100267.11
2019-03-11T13:00:18.319Z,100253.38
2019-03-11T13:02:47.678Z,100249.16
2019-03-11T13:05:17.116Z,100248.08
2019-03-11T13:07:46.532Z,100252.75
2019-03-11T13:10:18.001Z,100251.30
2019-03-11T13:12:47.317Z,100259.91
2019-03-11T13:15:16.804Z,100250.05
2019-03-11T13:17:46.147Z,100247.63
2019-03-11T13:20:19.893Z,100248.25
2019-03-11T13:22:50.455Z,100252.83
2019-03-11T13:25:19.938Z,100266.95
2019-03-11T13:27:49.311Z,100270.53
2019-03-11T13:30:18.725Z,100272.19
2019-03-11T13:32:48.136Z,100291.70
2019-03-11T13:35:17.476Z,100276.77
2019-03-11T13:37:48.273Z,100277.27
2019-03-11T13:40:17.623Z,100281.67
2019-03-11T13:42:47.069Z,100288.20
2019-03-11T13:45:16.545Z,100301.06
2019-03-11T13:47:47.544Z,100333.13
2019-03-11T13:50:16.941Z,100322.70
2019-03-11T13:52:46.323Z,100324.73
2019-03-11T13:55:15.807Z,100328.91
2019-03-11T13:57:45.155Z,100312.73
2019-03-11T14:00:14.697Z,100300.70
2019-03-11T14:02:44.116Z,100305.55
2019-03-11T14:05:20.016Z,100320.45
2019-03-11T14:07:49.372Z,100317.84
2019-03-11T14:10:19.307Z,100331.41
2019-03-11T14:12:48.584Z,100308.11
2019-03-11T14:15:17.983Z,100327.00
2019-03-11T14:17:48.268Z,100308.43
2019-03-11T14:20:18.729Z,100316.73
2019-03-11T14:22:48.069Z,100318.50
2019-03-11T14:25:17.376Z,100309.38
2019-03-11T14:27:46.768Z,100327.45
2019-03-11T14:30:16.863Z,100322.67
2019-03-11T14:32:47.138Z,100342.87
2019-03-11T14:35:16.473Z,100342.33
2019-03-11T14:37:45.807Z,100344.58
2019-03-11T14:40:15.231Z,100321.75
2019-03-11T14:42:44.614Z,100328.58
2019-03-11T14:45:14.925Z,100323.34
2019-03-11T14:47:44.424Z,100331.33
2019-03-11T14:50:13.865Z,100335.48
2019-03-11T14:52:43.237Z,100336.42
2019-03-11T14:55:12.570Z,100351.61
2019-03-11T14:57:41.916Z,100356.70
2019-03-11T15:00:14.483Z,100355.00
2019-03-11T15:02:43.786Z,100350.73
2019-03-11T15:05:13.759Z,100368.30
2019-03-11T15:07:43.116Z,100350.49
2019-03-11T15:10:13.456Z,100348.98
2019-03-11T15:12:43.716Z,100351.19
2019-03-11T15:15:15.160Z,100351.52
2019-03-11T15:17:44.560Z,100345.80
2019-03-11T15:20:14.225Z,100353.67
2019-03-11T15:22:44.290Z,100361.58
2019-03-11T15:25:13.801Z,100352.81
2019-03-11T15:27:43.181Z,100333.66
2019-03-11T15:30:15.470Z,100338.05
2019-03-11T15:32:44.924Z,100345.84
2019-03-11T15:35:14.356Z,100353.64
2019-03-11T15:37:43.662Z,100365.27
2019-03-11T15:40:13.396Z,100368.27
2019-03-11T15:42:42.780Z,100352.09
2019-03-11T15:45:13.805Z,100356.80
2019-03-11T15:47:43.185Z,100366.55
2019-03-11T15:50:16.020Z,100357.81
2019-03-11T15:52:45.554Z,100356.64
2019-03-11T15:55:15.761Z,100369.37
2019-03-11T15:57:46.115Z,100365.53
2019-03-11T16:00:18.532Z,100375.67
2019-03-11T16:02:48.011Z,100385.89
2019-03-11T16:05:18.905Z,100392.77
2019-03-11T16:07:48.392Z,100375.14
2019-03-11T16:10:19.476Z,100380.55
2019-03-11T16:12:48.830Z,100381.27
2019-03-11T16:15:18.383Z,100383.48
2019-03-11T16:17:47.837Z,100382.48
2019-03-11T16:20:18.823Z,100393.83
2019-03-11T16:22:48.272Z,100408.25
2019-03-11T16:25:17.588Z,100402.23
2019-03-11T16:27:46.848Z,100400.81
2019-03-11T16:30:18.855Z,100417.19
2019-03-11T16:32:58.466Z,100406.42
2019-03-11T16:35:17.788Z,100400.69
2019-03-11T16:37:47.075Z,100400.13
2019-03-11T16:40:16.568Z,100398.40
2019-03-11T16:42:45.856Z,100411.38
2019-03-11T16:45:15.430Z,100401.69
2019-03-11T16:47:45.610Z,100407.88
2019-03-11T16:50:16.357Z,100391.17
2019-03-11T16:52:45.702Z,100412.12
2019-03-11T16:55:16.233Z,100416.77
2019-03-11T16:57:45.621Z,100420.76
2019-03-11T17:00:18.232Z,100433.69
2019-03-11T17:02:47.551Z,100425.82
2019-03-11T17:05:16.896Z,100438.31
2019-03-11T17:07:46.148Z,100433.42
2019-03-11T17:10:15.952Z,100421.80
2019-03-11T17:12:45.309Z,100437.33
2019-03-11T17:15:14.655Z,100447.27
2019-03-11T17:17:44.055Z,100454.43
2019-03-11T17:20:14.079Z,100455.98
2019-03-11T17:22:44.107Z,100484.22
2019-03-11T17:25:14.153Z,100491.61
2019-03-11T17:27:43.517Z,100486.13
2019-03-11T17:30:15.137Z,100480.23
2019-03-11T17:32:44.530Z,100482.64
2019-03-11T17:35:14.577Z,100490.25
2019-03-11T17:37:44.091Z,100486.61
2019-03-11T17:40:15.039Z,100497.52
2019-03-11T17:42:44.487Z,100492.42
2019-03-11T17:45:13.993Z,100515.05
2019-03-11T17:47:43.357Z,100513.84
2019-03-11T17:50:13.928Z,100494.95
2019-03-11T17:52:43.428Z,100502.81
2019-03-11T17:55:13.097Z,100518.06
2019-03-11T17:57:42.569Z,100511.06
2019-03-11T18:00:17.754Z,100514.48
2019-03-11T18:02:47.846Z,100526.92
2019-03-11T18:05:17.489Z,100525.94
2019-03-11T18:07:46.895Z,100536.13
2019-03-11T18:10:16.258Z,100541.57
2019-03-11T18:12:45.724Z,100552.56
2019-03-11T18:15:15.213Z,100556.83
2019-03-11T18:17:44.608Z,100565.73
2019-03-11T18:20:14.926Z,100562.34
2019-03-11T18:22:44.360Z,100563.78
2019-03-11T18:25:14.949Z,100562.58
2019-03-11T18:27:45.345Z,100554.92
2019-03-11T18:30:18.312Z,100565.02
2019-03-11T18:32:47.857Z,100560.88
2019-03-11T18:35:17.232Z,100553.31
2019-03-11T18:37:46.631Z,100551.77
2019-03-11T18:40:16.028Z,100555.41
2019-03-11T18:42:45.487Z,100558.80
2019-03-11T18:45:14.971Z,100563.28
2019-03-11T18:47:44.379Z,100573.86
2019-03-11T18:50:13.850Z,100572.03
2019-03-11T18:52:44.007Z,100570.69
2019-03-11T18:55:13.328Z,100588.19
2019-03-11T18:57:42.688Z,100576.13
2019-03-11T19:00:14.077Z,100573.34
2019-03-11T19:02:43.552Z,100584.03
2019-03-11T19:05:13.739Z,100588.78
2019-03-11T19:07:43.087Z,100612.82
2019-03-11T19:10:12.814Z,100611.33
2019-03-11T19:12:42.777Z,100615.70
2019-03-11T19:15:14.083Z,100609.38
2019-03-11T19:17:43.495Z,100620.69
2019-03-11T19:20:15.293Z,100617.18
2019-03-11T19:22:45.801Z,100623.35
2019-03-11T19:25:15.367Z,100631.77
2019-03-11T19:27:44.666Z,100617.98
2019-03-11T19:30:17.871Z,100625.70
2019-03-11T19:32:47.225Z,100622.03
2019-03-11T19:35:17.220Z,100635.22
2019-03-11T19:37:46.683Z,100635.98
2019-03-11T19:40:16.855Z,100634.11
2019-03-11T19:42:46.167Z,100622.03
2019-03-11T19:45:15.756Z,100634.00
2019-03-11T19:47:45.157Z,100639.11
2019-03-11T19:50:15.648Z,100622.43
2019-03-11T19:52:57.246Z,100625.23
2019-03-11T19:55:14.385Z,100636.70
2019-03-11T19:57:43.749Z,100641.45
2019-03-11T20:00:16.678Z,100642.50
2019-03-11T20:02:46.080Z,100642.27
2019-03-11T20:05:17.738Z,100642.12
2019-03-11T20:07:47.239Z,100645.09
2019-03-11T20:10:17.121Z,100648.33
2019-03-11T20:12:46.953Z,100642.05
2019-03-11T20:15:17.239Z,100625.75
2019-03-11T20:17:47.151Z,100641.90
2019-03-11T20:20:16.557Z,100651.20
2019-03-11T20:22:46.891Z,100636.94
2019-03-11T20:25:20.281Z,100658.16
2019-03-11T20:27:50.468Z,100666.59
2019-03-11T20:30:20.834Z,100670.95
2019-03-11T20:32:50.420Z,100683.71
2019-03-11T20:35:19.772Z,100668.94
2019-03-11T20:37:49.254Z,100684.95
2019-03-11T20:40:18.556Z,100682.99
2019-03-11T20:42:48.095Z,100673.30
2019-03-11T20:45:17.956Z,100673.94
2019-03-11T20:47:47.427Z,100684.08
2019-03-11T20:50:17.005Z,100676.19
2019-03-11T20:52:46.323Z,100673.63
2019-03-11T20:55:16.373Z,100687.30
2019-03-11T20:57:47.660Z,100682.40
2019-03-11T21:00:19.495Z,100682.30
2019-03-11T21:02:48.806Z,100696.94
2019-03-11T21:05:21.506Z,100703.80
2019-03-11T21:07:51.016Z,100707.30
2019-03-11T21:10:20.287Z,100687.08
2019-03-11T21:12:50.365Z,100707.87
2019-03-11T21:15:19.530Z,100705.41
2019-03-11T21:17:48.912Z,100712.44
2019-03-11T21:20:18.543Z,100703.88
2019-03-11T21:22:47.984Z,100728.95
2019-03-11T21:25:18.079Z,100725.75
2019-03-11T21:27:47.412Z,100724.52
2019-03-11T21:30:19.950Z,100734.90
2019-03-11T21:32:49.598Z,100736.48
2019-03-11T21:35:19.187Z,100725.64
2019-03-11T21:37:48.433Z,100737.50
2019-03-11T21:40:18.233Z,100741.16
2019-03-11T21:42:49.175Z,100742.23
2019-03-11T21:45:32.921Z,100746.17
2019-03-11T21:47:51.174Z,100754.06
2019-03-11T21:50:20.934Z,100756.19
2019-03-11T21:52:50.247Z,100762.95
2019-03-11T21:55:19.650Z,100766.33
2019-03-11T21:57:49.846Z,100765.08
2019-03-11T22:00:32.839Z,100765.39
2019-03-11T22:02:54.624Z,100758.66
2019-03-11T22:05:24.028Z,100765.19
2019-03-11T22:07:53.368Z,100767.72
2019-03-11T22:10:22.731Z,100766.06
2019-03-11T22:12:52.094Z,100765.72
2019-03-11T22:15:21.460Z,100766.06
2019-03-11T22:17:50.987Z,100774.23
2019-03-11T22:20:20.304Z,100781.66
2019-03-11T22:22:50.606Z,100786.22
2019-03-11T22:25:20.459Z,100779.06
2019-03-11T22:27:49.812Z,100774.41
2019-03-11T22:30:20.727Z,100769.98
2019-03-11T22:32:50.118Z,100783.63
2019-03-11T22:35:19.532Z,100789.19
2019-03-11T22:37:50.523Z,100784.17
2019-03-11T22:40:19.997Z,100797.55
2019-03-11T22:42:49.264Z,100798.00
2019-03-11T22:45:19.874Z,100801.93
2019-03-11T22:47:49.508Z,100809.91
2019-03-11T22:50:19.169Z,100809.61
2019-03-11T22:52:48.544Z,100812.02
2019-03-11T22:55:17.917Z,100811.38
2019-03-11T22:57:47.993Z,100818.86
2019-03-11T23:00:24.952Z,100832.02
2019-03-11T23:02:54.385Z,100832.66
2019-03-11T23:05:23.766Z,100828.83
2019-03-11T23:07:53.163Z,100834.25
2019-03-11T23:10:22.432Z,100843.09
2019-03-11T23:12:51.736Z,100841.47
2019-03-11T23:15:21.397Z,100852.45
2019-03-11T23:17:51.520Z,100853.97
2019-03-11T23:20:21.974Z,100847.81
2019-03-11T23:22:51.344Z,100858.54
2019-03-11T23:25:20.632Z,100861.45
2019-03-11T23:27:55.997Z,100865.34
2019-03-11T23:30:26.264Z,100872.56
2019-03-11T23:32:55.571Z,100870.46
2019-03-11T23:35:24.939Z,100870.03
2019-03-11T23:37:54.311Z,100869.16
2019-03-11T23:40:24.300Z,100866.50
2019-03-11T23:42:53.721Z,100850.98
2019-03-11T23:45:23.075Z,100863.44
2019-03-11T23:47:52.359Z,100859.75
2019-03-11T23:50:21.679Z,100857.09
2019-03-11T23:52:51.023Z,100869.70
2019-03-11T23:55:21.367Z,100866.10
2019-03-11T23:57:50.696Z,100868.16
